createdAt,value
2019-02-28T00:00:15.999Z,15.17
2019-02-28T00:02:44.497Z,15.03
2019-02-28T00:05:13.035Z,15.43
2019-02-28T00:07:41.601Z,14.30
2019-02-28T00:10:10.520Z,16.47
2019-02-28T00:12:39.010Z,15.13
2019-02-28T00:15:09.328Z,14.70
2019-02-28T00:17:42.735Z,15.53
2019-02-28T00:20:09.156Z,15.67
2019-02-28T00:22:37.789Z,14.77
2019-02-28T00:25:08.501Z,15.13
2019-02-28T00:27:36.995Z,15.50
2019-02-28T00:30:08.833Z,15.57
2019-02-28T00:32:37.338Z,16.90
2019-02-28T00:35:07.344Z,13.77
2019-02-28T00:37:35.837Z,14.80
2019-02-28T00:40:06.709Z,15.00
2019-02-28T00:42:35.362Z,15.93
2019-02-28T00:45:05.397Z,15.33
2019-02-28T00:47:33.891Z,16.30
2019-02-28T00:50:02.365Z,14.47
2019-02-28T00:52:32.057Z,15.50
2019-02-28T00:55:01.260Z,14.67
2019-02-28T00:57:29.710Z,15.17
2019-02-28T00:59:58.176Z,14.63
2019-02-28T01:02:26.671Z,14.90
2019-02-28T01:04:55.133Z,16.53
2019-02-28T01:07:23.628Z,16.57
2019-02-28T01:09:52.103Z,14.90
2019-02-28T01:12:20.593Z,13.33
2019-02-28T01:14:49.064Z,16.33
2019-02-28T01:17:17.565Z,19.37
2019-02-28T01:19:46.037Z,19.17
2019-02-28T01:22:14.544Z,14.87
2019-02-28T01:24:43.018Z,20.10
2019-02-28T01:27:11.514Z,16.50
2019-02-28T01:29:39.981Z,16.00
2019-02-28T01:32:08.477Z,14.83
2019-02-28T01:34:36.948Z,15.63
2019-02-28T01:37:05.445Z,16.47
2019-02-28T01:39:33.921Z,17.70
2019-02-28T01:42:02.419Z,18.80
2019-02-28T01:44:35.605Z,16.57
2019-02-28T01:47:01.111Z,17.93
2019-02-28T01:49:29.583Z,16.33
2019-02-28T01:51:58.087Z,16.70
2019-02-28T01:54:27.626Z,15.67
2019-02-28T01:56:56.937Z,16.87
2019-02-28T01:59:25.409Z,15.90
2019-02-28T02:01:53.908Z,15.60
2019-02-28T02:04:22.383Z,16.37
2019-02-28T02:06:51.318Z,14.57
2019-02-28T02:09:19.861Z,18.70
2019-02-28T02:11:48.356Z,13.37
2019-02-28T02:14:16.825Z,14.80
2019-02-28T02:16:45.325Z,27.43
2019-02-28T02:19:17.490Z,17.37
2019-02-28T02:21:44.005Z,13.47
2019-02-28T02:24:12.501Z,14.60
2019-02-28T02:26:42.354Z,15.53
2019-02-28T02:29:11.193Z,13.47
2019-02-28T02:31:39.739Z,16.93
2019-02-28T02:34:08.233Z,13.77
2019-02-28T02:36:36.706Z,15.97
2019-02-28T02:39:06.444Z,14.37
2019-02-28T02:41:35.032Z,12.93
2019-02-28T02:44:03.693Z,13.33
2019-02-28T02:46:32.171Z,11.53
2019-02-28T02:49:00.672Z,13.93
2019-02-28T02:51:29.153Z,14.40
2019-02-28T02:53:57.645Z,10.97
2019-02-28T02:56:26.121Z,11.77
2019-02-28T02:58:54.616Z,11.40
2019-02-28T03:01:24.359Z,10.37
2019-02-28T03:03:53.061Z,10.97
2019-02-28T03:06:21.537Z,11.47
2019-02-28T03:08:50.052Z,12.07
2019-02-28T03:11:18.511Z,10.73
2019-02-28T03:13:47.012Z,12.60
2019-02-28T03:16:15.483Z,10.30
2019-02-28T03:18:43.982Z,10.57
2019-02-28T03:21:15.231Z,10.40
2019-02-28T03:23:42.677Z,11.10
2019-02-28T03:26:11.149Z,10.20
2019-02-28T03:28:39.638Z,9.53
2019-02-28T03:31:14.156Z,12.77
2019-02-28T03:33:38.338Z,10.03
2019-02-28T03:36:06.811Z,9.13
2019-02-28T03:38:35.304Z,9.10
2019-02-28T03:41:03.774Z,9.97
2019-02-28T03:43:32.329Z,8.83
2019-02-28T03:46:00.809Z,8.90
2019-02-28T03:48:34.675Z,8.47
2019-02-28T03:50:59.482Z,7.67
2019-02-28T03:53:27.985Z,8.80
2019-02-28T03:55:56.453Z,9.17
2019-02-28T03:58:24.943Z,8.30
2019-02-28T04:00:53.409Z,9.93
2019-02-28T04:03:21.908Z,8.67
2019-02-28T04:05:50.375Z,11.47
2019-02-28T04:08:18.894Z,8.37
2019-02-28T04:10:47.356Z,7.83
2019-02-28T04:13:19.141Z,8.77
2019-02-28T04:16:01.534Z,8.50
2019-02-28T04:18:16.260Z,11.57
2019-02-28T04:20:44.738Z,10.50
2019-02-28T04:23:13.234Z,8.97
2019-02-28T04:25:41.707Z,8.40
2019-02-28T04:28:17.314Z,8.20
2019-02-28T04:30:43.721Z,9.90
2019-02-28T04:33:10.630Z,9.37
2019-02-28T04:35:39.171Z,8.20
2019-02-28T04:38:07.671Z,11.63
2019-02-28T04:40:36.137Z,8.73
2019-02-28T04:43:07.254Z,11.07
2019-02-28T04:45:34.823Z,8.37
2019-02-28T04:48:03.314Z,10.83
2019-02-28T04:50:32.282Z,10.40
2019-02-28T04:53:00.755Z,12.43
2019-02-28T04:55:30.618Z,10.70
2019-02-28T04:57:59.184Z,10.60
2019-02-28T05:00:27.685Z,11.87
2019-02-28T05:02:56.162Z,12.47
2019-02-28T05:05:24.656Z,10.40
2019-02-28T05:07:53.128Z,11.07
2019-02-28T05:10:22.274Z,10.03
2019-02-28T05:12:51.377Z,11.20
2019-02-28T05:15:19.875Z,12.27
2019-02-28T05:17:48.351Z,12.93
2019-02-28T05:20:16.863Z,10.53
2019-02-28T05:22:45.328Z,12.83
2019-02-28T05:25:17.555Z,9.13
2019-02-28T05:27:44.024Z,16.03
2019-02-28T05:30:18.056Z,11.03
2019-02-28T05:32:44.802Z,11.83
2019-02-28T05:35:13.367Z,12.67
2019-02-28T05:37:46.700Z,14.17
2019-02-28T05:40:13.802Z,14.10
2019-02-28T05:42:42.291Z,14.37
2019-02-28T05:45:14.466Z,11.67
2019-02-28T05:47:46.288Z,15.23
2019-02-28T05:50:15.580Z,15.33
2019-02-28T05:52:42.669Z,11.47
2019-02-28T05:55:11.612Z,12.13
2019-02-28T05:57:43.393Z,14.43
2019-02-28T06:00:13.573Z,11.93
2019-02-28T06:02:42.051Z,12.03
2019-02-28T06:05:11.847Z,13.83
2019-02-28T06:07:40.752Z,13.73
2019-02-28T06:10:11.089Z,15.00
2019-02-28T06:12:40.540Z,13.50
2019-02-28T06:15:11.983Z,13.57
2019-02-28T06:17:40.452Z,15.43
2019-02-28T06:20:10.599Z,15.70
2019-02-28T06:22:39.077Z,15.77
2019-02-28T06:25:09.340Z,15.10
2019-02-28T06:27:41.647Z,16.40
2019-02-28T06:30:12.969Z,12.20
2019-02-28T06:32:41.445Z,15.93
2019-02-28T06:35:10.086Z,15.47
2019-02-28T06:37:39.207Z,16.93
2019-02-28T06:40:13.350Z,13.87
2019-02-28T06:42:43.439Z,15.97
2019-02-28T06:45:19.049Z,19.80
2019-02-28T06:47:49.595Z,17.57
2019-02-28T06:50:17.809Z,15.83
2019-02-28T06:52:46.283Z,18.17
2019-02-28T06:55:25.388Z,18.10
2019-02-28T06:57:53.856Z,16.37
2019-02-28T07:00:22.425Z,16.27
2019-02-28T07:02:50.900Z,21.70
2019-02-28T07:05:24.622Z,17.20
2019-02-28T07:07:50.058Z,16.20
2019-02-28T07:10:18.948Z,16.43
2019-02-28T07:12:47.421Z,22.00
2019-02-28T07:15:15.999Z,17.30
2019-02-28T07:17:46.520Z,18.67
2019-02-28T07:20:16.042Z,18.07
2019-02-28T07:22:44.597Z,20.70
2019-02-28T07:25:13.874Z,21.37
2019-02-28T07:27:42.498Z,19.07
2019-02-28T07:30:17.333Z,21.07
2019-02-28T07:32:44.164Z,18.27
2019-02-28T07:35:12.740Z,20.93
2019-02-28T07:37:41.220Z,19.37
2019-02-28T07:40:17.543Z,16.97
2019-02-28T07:42:46.225Z,19.53
2019-02-28T07:45:15.366Z,19.93
2019-02-28T07:47:43.979Z,21.20
2019-02-28T07:50:14.590Z,22.37
2019-02-28T07:52:43.061Z,20.97
2019-02-28T07:55:13.701Z,21.23
2019-02-28T07:57:42.184Z,24.17
2019-02-28T08:00:18.190Z,23.50
2019-02-28T08:02:46.202Z,21.90
2019-02-28T08:05:15.136Z,21.07
2019-02-28T08:07:50.196Z,24.63
2019-02-28T08:10:19.255Z,25.40
2019-02-28T08:12:47.734Z,24.40
2019-02-28T08:15:23.582Z,23.80
2019-02-28T08:17:52.301Z,24.57
2019-02-28T08:20:21.345Z,21.07
2019-02-28T08:22:49.827Z,21.83
2019-02-28T08:25:18.332Z,23.77
2019-02-28T08:27:46.946Z,21.27
2019-02-28T08:30:20.880Z,27.03
2019-02-28T08:32:49.598Z,23.43
2019-02-28T08:35:18.122Z,25.20
2019-02-28T08:37:46.588Z,24.97
2019-02-28T08:40:22.983Z,26.47
2019-02-28T08:42:51.460Z,25.33
2019-02-28T08:45:19.974Z,24.40
2019-02-28T08:47:48.530Z,30.57
2019-02-28T08:50:23.629Z,28.10
2019-02-28T08:53:05.652Z,34.13
2019-02-28T08:55:34.162Z,33.50
2019-02-28T08:58:06.070Z,30.07
2019-02-28T09:00:33.424Z,32.05
2019-02-28T09:03:02.014Z,31.45
2019-02-28T09:05:30.532Z,38.28
2019-02-28T09:07:59.139Z,33.50
2019-02-28T09:10:28.076Z,37.93
2019-02-28T09:12:56.563Z,30.20
2019-02-28T09:15:30.147Z,32.17
2019-02-28T09:17:59.359Z,34.53
2019-02-28T09:20:25.822Z,32.50
2019-02-28T09:22:54.311Z,33.13
2019-02-28T09:25:23.961Z,37.23
2019-02-28T09:27:52.585Z,33.23
2019-02-28T09:30:41.619Z,33.60
2019-02-28T09:33:10.212Z,32.43
2019-02-28T09:35:38.680Z,37.63
2019-02-28T09:38:13.014Z,34.13
2019-02-28T09:40:37.392Z,32.93
2019-02-28T09:43:06.016Z,34.15
2019-02-28T09:45:35.002Z,35.53
2019-02-28T09:48:03.548Z,40.67
2019-02-28T09:50:33.163Z,37.83
2019-02-28T09:53:01.894Z,41.33
2019-02-28T09:55:34.262Z,35.53
2019-02-28T09:58:00.674Z,40.80
2019-02-28T10:00:30.248Z,38.20
2019-02-28T10:02:58.723Z,46.97
2019-02-28T10:05:27.222Z,49.10
2019-02-28T10:08:01.690Z,40.70
2019-02-28T10:10:30.301Z,44.37
2019-02-28T10:12:58.777Z,45.37
2019-02-28T10:15:27.428Z,46.07
2019-02-28T10:17:55.954Z,45.10
2019-02-28T10:20:28.418Z,47.43
2019-02-28T10:22:57.163Z,47.63
2019-02-28T10:25:25.713Z,52.53
2019-02-28T10:27:54.831Z,52.63
2019-02-28T10:30:31.624Z,49.23
2019-02-28T10:32:54.991Z,48.13
2019-02-28T10:35:23.474Z,40.43
2019-02-28T10:37:57.454Z,49.87
2019-02-28T10:40:24.963Z,43.80
2019-02-28T10:42:53.807Z,41.30
2019-02-28T10:45:23.096Z,44.40
2019-02-28T10:47:51.608Z,46.93
2019-02-28T10:50:22.429Z,42.43
2019-02-28T10:52:51.003Z,46.93
2019-02-28T10:55:22.403Z,42.45
2019-02-28T10:57:50.187Z,46.30
2019-02-28T11:00:29.282Z,44.47
2019-02-28T11:02:57.781Z,43.70
2019-02-28T11:05:29.087Z,45.40
2019-02-28T11:07:57.735Z,48.63
2019-02-28T11:10:37.994Z,46.97
2019-02-28T11:13:09.555Z,45.57
2019-02-28T11:15:38.176Z,46.83
2019-02-28T11:18:09.559Z,41.18
2019-02-28T11:20:37.747Z,40.08
2019-02-28T11:23:07.652Z,47.47
2019-02-28T11:25:36.516Z,40.53
2019-02-28T11:28:05.261Z,40.67
2019-02-28T11:30:36.053Z,42.17
2019-02-28T11:33:04.855Z,43.83
2019-02-28T11:35:33.481Z,45.80
2019-02-28T11:38:02.115Z,45.90
2019-02-28T11:40:30.844Z,46.70
2019-02-28T11:43:02.754Z,46.55
2019-02-28T11:45:34.209Z,44.65
2019-02-28T11:48:05.358Z,41.68
2019-02-28T11:50:33.912Z,49.23
2019-02-28T11:53:05.708Z,52.27
2019-02-28T11:55:32.622Z,51.85
2019-02-28T11:58:01.569Z,45.65
2019-02-28T12:00:35.916Z,54.73
2019-02-28T12:03:02.955Z,59.40
2019-02-28T12:05:31.505Z,55.03
2019-02-28T12:08:00.014Z,57.45
2019-02-28T12:10:28.497Z,52.10
2019-02-28T12:12:57.000Z,51.63
2019-02-28T12:15:30.771Z,53.28
2019-02-28T12:18:03.495Z,57.53
2019-02-28T12:20:29.557Z,55.98
2019-02-28T12:22:58.071Z,54.60
2019-02-28T12:25:26.892Z,51.85
2019-02-28T12:27:55.471Z,55.50
2019-02-28T12:30:29.052Z,46.42
2019-02-28T12:32:57.564Z,52.40
2019-02-28T12:35:26.042Z,55.25
2019-02-28T12:37:55.016Z,51.10
2019-02-28T12:40:35.264Z,55.30
2019-02-28T12:43:08.807Z,89.30
2019-02-28T12:45:41.276Z,57.00
2019-02-28T12:48:09.862Z,56.10
2019-02-28T12:50:38.405Z,49.13
2019-02-28T12:53:07.253Z,47.58
2019-02-28T12:55:39.022Z,42.83
2019-02-28T12:58:06.907Z,43.28
2019-02-28T13:00:40.682Z,44.42
2019-02-28T13:03:10.219Z,42.48
2019-02-28T13:05:38.771Z,43.08
2019-02-28T13:08:07.287Z,45.15
2019-02-28T13:10:35.999Z,50.03
2019-02-28T13:13:06.794Z,41.20
2019-02-28T13:15:35.022Z,41.77
2019-02-28T13:18:07.163Z,61.40
2019-02-28T13:20:36.489Z,50.12
2019-02-28T13:23:05.347Z,56.75
2019-02-28T13:25:34.011Z,42.75
2019-02-28T13:28:02.512Z,44.55
2019-02-28T13:30:31.138Z,49.05
2019-02-28T13:32:59.814Z,52.70
2019-02-28T13:35:30.704Z,49.27
2019-02-28T13:37:59.291Z,49.90
2019-02-28T13:40:27.771Z,56.23
2019-02-28T13:42:56.296Z,60.33
2019-02-28T13:45:25.496Z,62.15
2019-02-28T13:47:54.005Z,70.97
2019-02-28T13:50:33.160Z,49.38
2019-02-28T13:53:03.441Z,50.23
2019-02-28T13:55:31.999Z,55.67
2019-02-28T13:58:00.660Z,49.10
2019-02-28T14:00:33.816Z,49.98
2019-02-28T14:03:10.487Z,50.17
2019-02-28T14:05:41.296Z,56.35
2019-02-28T14:08:11.243Z,53.52
2019-02-28T14:10:39.662Z,52.53
2019-02-28T14:13:08.375Z,51.55
2019-02-28T14:15:39.336Z,51.55
2019-02-28T14:18:10.945Z,50.65
2019-02-28T14:20:38.560Z,61.50
2019-02-28T14:23:07.142Z,56.45
2019-02-28T14:25:36.377Z,54.10
2019-02-28T14:28:06.097Z,55.85
2019-02-28T14:30:34.651Z,54.08
2019-02-28T14:33:03.226Z,54.15
2019-02-28T14:35:35.184Z,55.48
2019-02-28T14:38:01.930Z,62.58
2019-02-28T14:40:30.418Z,54.48
2019-02-28T14:42:58.998Z,62.30
2019-02-28T14:45:29.520Z,58.17
2019-02-28T14:48:00.865Z,63.28
2019-02-28T14:50:28.229Z,55.25
2019-02-28T14:52:58.086Z,57.60
2019-02-28T14:55:29.377Z,57.93
2019-02-28T14:57:57.247Z,56.13
2019-02-28T15:00:35.342Z,61.50
2019-02-28T15:03:04.214Z,56.18
2019-02-28T15:05:38.137Z,58.20
2019-02-28T15:08:06.793Z,57.00
2019-02-28T15:10:35.414Z,58.30
2019-02-28T15:13:04.936Z,58.80
2019-02-28T15:15:35.919Z,62.58
2019-02-28T15:18:04.190Z,56.55
2019-02-28T15:20:33.162Z,59.27
2019-02-28T15:23:01.862Z,58.50
2019-02-28T15:25:30.981Z,57.33
2019-02-28T15:27:59.662Z,56.98
2019-02-28T15:30:34.838Z,58.13
2019-02-28T15:33:03.672Z,55.12
2019-02-28T15:35:32.135Z,61.47
2019-02-28T15:38:00.730Z,63.80
2019-02-28T15:40:32.049Z,56.18
2019-02-28T15:43:00.564Z,58.40
2019-02-28T15:45:29.179Z,55.05
2019-02-28T15:47:59.130Z,57.07
2019-02-28T15:50:27.886Z,54.83
2019-02-28T15:52:56.504Z,54.80
2019-02-28T15:55:25.548Z,55.80
2019-02-28T15:57:54.094Z,57.67
2019-02-28T16:00:30.512Z,52.83
2019-02-28T16:02:59.128Z,46.83
2019-02-28T16:05:27.774Z,51.40
2019-02-28T16:07:57.298Z,52.00
2019-02-28T16:10:28.575Z,50.17
2019-02-28T16:12:58.717Z,51.30
2019-02-28T16:15:27.451Z,50.27
2019-02-28T16:17:56.016Z,49.55
2019-02-28T16:20:25.106Z,49.65
2019-02-28T16:22:53.659Z,51.37
2019-02-28T16:25:25.020Z,61.67
2019-02-28T16:27:53.496Z,54.30
2019-02-28T16:30:22.347Z,55.47
2019-02-28T16:32:50.860Z,61.83
2019-02-28T16:35:19.439Z,183.57
2019-02-28T16:37:47.934Z,284.33
2019-02-28T16:40:26.181Z,84.93
2019-02-28T16:42:51.730Z,62.87
2019-02-28T16:45:24.929Z,64.80
2019-02-28T16:47:55.688Z,64.10
2019-02-28T16:50:23.645Z,76.03
2019-02-28T16:52:52.321Z,82.87
2019-02-28T16:55:20.830Z,63.20
2019-02-28T16:57:49.313Z,73.50
2019-02-28T17:00:18.336Z,63.23
2019-02-28T17:02:46.955Z,81.67
2019-02-28T17:05:15.535Z,71.70
2019-02-28T17:07:44.567Z,73.33
2019-02-28T17:10:19.006Z,89.93
2019-02-28T17:12:51.962Z,65.07
2019-02-28T17:15:23.276Z,60.47
2019-02-28T17:17:54.211Z,69.30
2019-02-28T17:20:22.720Z,58.50
2019-02-28T17:22:51.203Z,59.00
2019-02-28T17:25:21.832Z,64.00
2019-02-28T17:27:57.277Z,65.27
2019-02-28T17:30:39.188Z,64.17
2019-02-28T17:33:09.091Z,66.13
2019-02-28T17:35:38.295Z,66.20
2019-02-28T17:38:06.846Z,64.57
2019-02-28T17:40:35.424Z,71.07
2019-02-28T17:43:03.901Z,62.80
2019-02-28T17:45:32.482Z,67.13
2019-02-28T17:48:20.420Z,61.40
2019-02-28T17:51:00.545Z,66.10
2019-02-28T17:53:35.018Z,65.50
2019-02-28T17:56:24.524Z,66.63
2019-02-28T17:59:05.289Z,60.20
2019-02-28T18:01:48.429Z,71.27
2019-02-28T18:04:24.110Z,65.67
2019-02-28T18:07:16.568Z,68.70
2019-02-28T18:09:53.980Z,68.70
2019-02-28T18:12:58.356Z,70.23
2019-02-28T18:15:35.795Z,67.63
2019-02-28T18:18:22.407Z,73.83
2019-02-28T18:21:12.583Z,70.90
2019-02-28T18:23:50.035Z,70.83
2019-02-28T18:26:39.284Z,73.10
2019-02-28T18:29:14.874Z,72.73
2019-02-28T18:31:43.360Z,71.30
2019-02-28T18:34:11.991Z,73.20
2019-02-28T18:36:43.377Z,69.97
2019-02-28T18:39:11.637Z,72.23
2019-02-28T18:41:42.156Z,72.87
2019-02-28T18:44:11.093Z,69.73
2019-02-28T18:46:39.590Z,72.17
2019-02-28T18:49:08.075Z,72.80
2019-02-28T18:51:36.581Z,81.23
2019-02-28T18:54:05.303Z,72.83
2019-02-28T18:56:33.816Z,79.20
2019-02-28T18:59:02.358Z,75.33
2019-02-28T19:01:30.915Z,70.20
2019-02-28T19:03:59.424Z,77.23
2019-02-28T19:06:27.973Z,84.70
2019-02-28T19:08:56.480Z,75.10
2019-02-28T19:11:25.062Z,74.10
2019-02-28T19:13:53.563Z,73.47
2019-02-28T19:16:22.068Z,78.17
2019-02-28T19:18:50.547Z,74.93
2019-02-28T19:21:19.057Z,76.57
2019-02-28T19:23:47.540Z,78.03
2019-02-28T19:26:17.521Z,79.43
2019-02-28T19:28:46.004Z,84.37
2019-02-28T19:31:14.515Z,78.10
2019-02-28T19:33:43.064Z,77.50
2019-02-28T19:36:11.579Z,75.87
2019-02-28T19:38:40.058Z,80.77
2019-02-28T19:41:10.208Z,81.63
2019-02-28T19:43:38.691Z,80.20
2019-02-28T19:46:07.296Z,79.03
2019-02-28T19:48:36.439Z,84.57
2019-02-28T19:51:05.194Z,71.63
2019-02-28T19:53:33.678Z,84.33
2019-02-28T19:56:02.189Z,83.70
2019-02-28T19:58:30.728Z,90.47
2019-02-28T20:00:59.697Z,91.43
2019-02-28T20:03:28.173Z,84.23
2019-02-28T20:05:56.706Z,91.87
2019-02-28T20:08:25.180Z,83.40
2019-02-28T20:10:53.772Z,82.67
2019-02-28T20:13:22.250Z,84.70
2019-02-28T20:15:50.837Z,81.27
2019-02-28T20:18:19.378Z,89.57
2019-02-28T20:20:48.662Z,85.77
2019-02-28T20:23:17.158Z,80.77
2019-02-28T20:25:45.627Z,85.33
2019-02-28T20:28:14.214Z,91.80
2019-02-28T20:30:42.773Z,86.20
2019-02-28T20:33:11.362Z,82.27
2019-02-28T20:35:39.909Z,90.77
2019-02-28T20:38:08.422Z,86.50
2019-02-28T20:40:38.334Z,89.13
2019-02-28T20:43:06.845Z,86.53
2019-02-28T20:45:35.327Z,86.13
2019-02-28T20:48:04.357Z,98.20
2019-02-28T20:50:47.578Z,95.47
2019-02-28T20:53:16.097Z,96.80
2019-02-28T20:55:44.594Z,101.20
2019-02-28T20:58:13.118Z,93.23
2019-02-28T21:00:41.667Z,95.00
2019-02-28T21:03:10.191Z,104.60
2019-02-28T21:05:38.742Z,100.53
2019-02-28T21:08:07.262Z,95.97
2019-02-28T21:10:35.736Z,97.23
2019-02-28T21:13:04.321Z,105.70
2019-02-28T21:15:32.802Z,100.47
2019-02-28T21:18:01.325Z,94.90
2019-02-28T21:20:29.825Z,102.80
2019-02-28T21:22:58.332Z,99.07
2019-02-28T21:25:26.834Z,97.47
2019-02-28T21:27:55.331Z,104.23
2019-02-28T21:30:26.033Z,101.00
2019-02-28T21:32:54.804Z,100.83
2019-02-28T21:35:23.723Z,97.10
2019-02-28T21:37:52.382Z,100.07
2019-02-28T21:40:22.067Z,95.93
2019-02-28T21:42:51.671Z,99.40
2019-02-28T21:45:22.438Z,99.00
2019-02-28T21:47:50.986Z,97.20
2019-02-28T21:50:19.531Z,97.27
2019-02-28T21:52:48.233Z,94.70
2019-02-28T21:55:17.976Z,99.20
2019-02-28T21:57:46.871Z,102.33
2019-02-28T22:00:18.400Z,96.10
2019-02-28T22:02:46.918Z,96.43
2019-02-28T22:05:15.540Z,97.40
2019-02-28T22:07:44.606Z,97.13
2019-02-28T22:10:17.318Z,97.20
2019-02-28T22:12:45.876Z,97.80
2019-02-28T22:15:16.414Z,93.97
2019-02-28T22:17:44.912Z,99.83
2019-02-28T22:20:14.944Z,98.00
2019-02-28T22:22:43.457Z,101.30
2019-02-28T22:25:14.320Z,106.67
2019-02-28T22:27:42.981Z,103.47
2019-02-28T22:30:24.692Z,103.80
2019-02-28T22:32:57.771Z,102.97
2019-02-28T22:35:27.896Z,112.63
2019-02-28T22:37:56.410Z,107.30
2019-02-28T22:40:24.896Z,99.33
2019-02-28T22:42:53.408Z,102.90
2019-02-28T22:45:21.893Z,105.63
2019-02-28T22:47:50.410Z,102.03
2019-02-28T22:50:18.901Z,107.33
2019-02-28T22:52:47.942Z,105.17
2019-02-28T22:55:18.989Z,101.57
2019-02-28T22:57:47.490Z,101.40
2019-02-28T23:00:31.872Z,109.30
2019-02-28T23:03:00.470Z,107.43
2019-02-28T23:05:28.936Z,102.37
2019-02-28T23:07:57.484Z,108.77
2019-02-28T23:10:25.935Z,114.03
2019-02-28T23:12:54.577Z,107.93
2019-02-28T23:15:23.060Z,117.50
2019-02-28T23:17:51.566Z,118.33
2019-02-28T23:20:20.048Z,116.97
2019-02-28T23:22:48.555Z,108.90
2019-02-28T23:25:17.034Z,109.30
2019-02-28T23:27:45.544Z,115.73
2019-02-28T23:30:35.043Z,109.33
2019-02-28T23:33:03.693Z,114.23
2019-02-28T23:35:34.307Z,114.87
2019-02-28T23:38:02.812Z,103.27
2019-02-28T23:40:31.330Z,103.97
2019-02-28T23:42:59.794Z,115.33
2019-02-28T23:45:28.276Z,107.73
2019-02-28T23:47:56.788Z,108.43
2019-02-28T23:50:25.270Z,108.20
2019-02-28T23:52:53.778Z,123.67
2019-02-28T23:55:22.263Z,108.27
2019-02-28T23:57:50.750Z,113.03
